sensor_id;sensor_type;location;lat;lon;timestamp;temperature;humidity
3350;DHT22;1688;51.000;13.684;2024-02-26T00:01:35;6.20;99.90
3350;DHT22;1688;51.000;13.684;2024-02-26T00:04:07;6.30;99.90
3350;DHT22;1688;51.000;13.684;2024-02-26T00:06:40;6.20;99.90
3350;DHT22;1688;51.000;13.684;2024-02-26T00:09:14;6.30;99.90
3350;DHT22;1688;51.000;13.684;2024-02-26T00:11:47;6.20;99.90
3350;DHT22;1688;51.000;13.684;2024-02-26T00:14:20;6.20;99.90
3350;DHT22;1688;51.000;13.684;2024-02-26T00:16:53;6.20;99.90
3350;DHT22;1688;51.000;13.684;2024-02-26T00:19:26;6.20;99.90
3350;DHT22;1688;51.000;13.684;2024-02-26T00:21:58;6.20;99.90
3350;DHT22;1688;51.000;13.684;2024-02-26T00:24:31;6.20;99.90
3350;DHT22;1688;51.000;13.684;2024-02-26T00:27:04;6.20;99.90
3350;DHT22;1688;51.000;13.684;2024-02-26T00:29:37;6.20;99.90
3350;DHT22;1688;51.000;13.684;2024-02-26T00:32:10;6.20;99.90
3350;DHT22;1688;51.000;13.684;2024-02-26T00:34:43;6.20;99.90
3350;DHT22;1688;51.000;13.684;2024-02-26T00:37:16;6.10;99.90
3350;DHT22;1688;51.000;13.684;2024-02-26T00:39:48;6.10;99.90
3350;DHT22;1688;51.000;13.684;2024-02-26T00:42:21;6.10;99.90
3350;DHT22;1688;51.000;13.684;2024-02-26T00:44:54;6.10;99.90
3350;DHT22;1688;51.000;13.684;2024-02-26T00:47:27;6.10;99.90
3350;DHT22;1688;51.000;13.684;2024-02-26T00:50:00;6.10;99.90
3350;DHT22;1688;51.000;13.684;2024-02-26T00:52:33;6.10;99.90
3350;DHT22;1688;51.000;13.684;2024-02-26T00:55:07;6.00;99.90
3350;DHT22;1688;51.000;13.684;2024-02-26T00:57:40;6.00;99.90
3350;DHT22;1688;51.000;13.684;2024-02-26T01:00:14;5.90;99.90
3350;DHT22;1688;51.000;13.684;2024-02-26T01:02:47;5.90;99.90
3350;DHT22;1688;51.000;13.684;2024-02-26T01:05:20;5.90;99.90
3350;DHT22;1688;51.000;13.684;2024-02-26T01:07:53;5.90;99.90
3350;DHT22;1688;51.000;13.684;2024-02-26T01:10:26;6.00;99.90
3350;DHT22;1688;51.000;13.684;2024-02-26T01:12:59;6.00;99.90
3350;DHT22;1688;51.000;13.684;2024-02-26T01:15:32;6.00;99.90
3350;DHT22;1688;51.000;13.684;2024-02-26T01:18:05;6.00;99.90
3350;DHT22;1688;51.000;13.684;2024-02-26T01:20:38;6.00;99.90
3350;DHT22;1688;51.000;13.684;2024-02-26T01:23:11;6.10;99.90
3350;DHT22;1688;51.000;13.684;2024-02-26T01:25:44;6.00;99.90
3350;DHT22;1688;51.000;13.684;2024-02-26T01:28:17;5.90;99.90
3350;DHT22;1688;51.000;13.684;2024-02-26T01:30:50;6.00;99.90
3350;DHT22;1688;51.000;13.684;2024-02-26T01:33:23;5.90;99.90
3350;DHT22;1688;51.000;13.684;2024-02-26T01:35:56;5.90;99.90
3350;DHT22;1688;51.000;13.684;2024-02-26T01:38:28;5.80;99.90
3350;DHT22;1688;51.000;13.684;2024-02-26T01:41:01;5.80;99.90
3350;DHT22;1688;51.000;13.684;2024-02-26T01:43:35;5.70;99.90
3350;DHT22;1688;51.000;13.684;2024-02-26T01:46:12;5.50;99.90
3350;DHT22;1688;51.000;13.684;2024-02-26T01:48:47;5.40;99.90
3350;DHT22;1688;51.000;13.684;2024-02-26T01:51:23;5.40;99.90
3350;DHT22;1688;51.000;13.684;2024-02-26T01:53:56;5.30;99.90
3350;DHT22;1688;51.000;13.684;2024-02-26T01:56:31;5.40;99.90
3350;DHT22;1688;51.000;13.684;2024-02-26T01:59:05;5.40;99.90
3350;DHT22;1688;51.000;13.684;2024-02-26T02:01:42;5.40;99.90
3350;DHT22;1688;51.000;13.684;2024-02-26T02:04:17;5.40;99.90
3350;DHT22;1688;51.000;13.684;2024-02-26T02:06:52;5.50;99.90
3350;DHT22;1688;51.000;13.684;2024-02-26T02:09:26;5.50;99.90
3350;DHT22;1688;51.000;13.684;2024-02-26T02:11:59;5.50;99.90
3350;DHT22;1688;51.000;13.684;2024-02-26T02:14:33;5.50;99.90
3350;DHT22;1688;51.000;13.684;2024-02-26T02:17:05;5.50;99.90
3350;DHT22;1688;51.000;13.684;2024-02-26T02:19:38;5.50;99.90
3350;DHT22;1688;51.000;13.684;2024-02-26T02:22:11;5.40;99.90
3350;DHT22;1688;51.000;13.684;2024-02-26T02:24:45;5.40;99.90
3350;DHT22;1688;51.000;13.684;2024-02-26T02:27:18;5.40;99.90
3350;DHT22;1688;51.000;13.684;2024-02-26T02:29:52;5.40;99.90
3350;DHT22;1688;51.000;13.684;2024-02-26T02:32:25;5.40;99.90
3350;DHT22;1688;51.000;13.684;2024-02-26T02:34:59;5.30;99.90
3350;DHT22;1688;51.000;13.684;2024-02-26T02:37:32;5.30;99.90
3350;DHT22;1688;51.000;13.684;2024-02-26T02:40:05;5.30;99.90
3350;DHT22;1688;51.000;13.684;2024-02-26T02:42:38;5.40;99.90
3350;DHT22;1688;51.000;13.684;2024-02-26T02:45:11;5.30;99.90
3350;DHT22;1688;51.000;13.684;2024-02-26T02:47:44;5.30;99.90
3350;DHT22;1688;51.000;13.684;2024-02-26T02:50:17;5.30;99.90
3350;DHT22;1688;51.000;13.684;2024-02-26T02:52:50;5.30;99.90
3350;DHT22;1688;51.000;13.684;2024-02-26T02:55:23;5.30;99.90
3350;DHT22;1688;51.000;13.684;2024-02-26T02:57:55;5.30;99.90
3350;DHT22;1688;51.000;13.684;2024-02-26T03:00:28;5.20;99.90
3350;DHT22;1688;51.000;13.684;2024-02-26T03:03:01;5.10;99.90
3350;DHT22;1688;51.000;13.684;2024-02-26T03:05:34;5.10;99.90
3350;DHT22;1688;51.000;13.684;2024-02-26T03:08:07;5.10;99.90
3350;DHT22;1688;51.000;13.684;2024-02-26T03:10:40;5.10;99.90
3350;DHT22;1688;51.000;13.684;2024-02-26T03:13:15;5.10;99.90
3350;DHT22;1688;51.000;13.684;2024-02-26T03:15:48;5.10;99.90
3350;DHT22;1688;51.000;13.684;2024-02-26T03:18:21;5.10;99.90
3350;DHT22;1688;51.000;13.684;2024-02-26T03:20:54;5.20;99.90
3350;DHT22;1688;51.000;13.684;2024-02-26T03:23:27;5.10;99.90
3350;DHT22;1688;51.000;13.684;2024-02-26T03:26:00;5.10;99.90
3350;DHT22;1688;51.000;13.684;2024-02-26T03:28:33;5.20;99.90
3350;DHT22;1688;51.000;13.684;2024-02-26T03:31:06;5.10;99.90
3350;DHT22;1688;51.000;13.684;2024-02-26T03:33:39;5.10;99.90
3350;DHT22;1688;51.000;13.684;2024-02-26T03:36:12;5.10;99.90
3350;DHT22;1688;51.000;13.684;2024-02-26T03:38:45;5.10;99.90
3350;DHT22;1688;51.000;13.684;2024-02-26T03:41:18;5.10;99.90
3350;DHT22;1688;51.000;13.684;2024-02-26T03:43:51;5.10;99.90
3350;DHT22;1688;51.000;13.684;2024-02-26T03:46:23;5.20;99.90
3350;DHT22;1688;51.000;13.684;2024-02-26T03:48:56;5.10;99.90
3350;DHT22;1688;51.000;13.684;2024-02-26T03:51:29;5.20;99.90
3350;DHT22;1688;51.000;13.684;2024-02-26T03:54:04;5.20;99.90
3350;DHT22;1688;51.000;13.684;2024-02-26T03:56:37;5.20;99.90
3350;DHT22;1688;51.000;13.684;2024-02-26T03:59:10;5.20;99.90
3350;DHT22;1688;51.000;13.684;2024-02-26T04:01:46;5.20;99.90
3350;DHT22;1688;51.000;13.684;2024-02-26T04:04:22;5.10;99.90
3350;DHT22;1688;51.000;13.684;2024-02-26T04:06:55;5.10;99.90
3350;DHT22;1688;51.000;13.684;2024-02-26T04:09:28;5.10;99.90
3350;DHT22;1688;51.000;13.684;2024-02-26T04:12:01;5.10;99.90
3350;DHT22;1688;51.000;13.684;2024-02-26T04:14:35;5.10;99.90
3350;DHT22;1688;51.000;13.684;2024-02-26T04:17:08;5.10;99.90
3350;DHT22;1688;51.000;13.684;2024-02-26T04:19:41;5.10;99.90
3350;DHT22;1688;51.000;13.684;2024-02-26T04:22:14;5.10;99.90
3350;DHT22;1688;51.000;13.684;2024-02-26T04:24:47;5.10;99.90
3350;DHT22;1688;51.000;13.684;2024-02-26T04:27:20;5.10;99.90
3350;DHT22;1688;51.000;13.684;2024-02-26T04:29:53;5.00;99.90
3350;DHT22;1688;51.000;13.684;2024-02-26T04:32:25;5.00;99.90
3350;DHT22;1688;51.000;13.684;2024-02-26T04:34:58;4.90;99.90
3350;DHT22;1688;51.000;13.684;2024-02-26T04:37:31;4.90;99.90
3350;DHT22;1688;51.000;13.684;2024-02-26T04:40:05;4.90;99.90
3350;DHT22;1688;51.000;13.684;2024-02-26T04:42:38;4.90;99.90
3350;DHT22;1688;51.000;13.684;2024-02-26T04:45:11;4.90;99.90
3350;DHT22;1688;51.000;13.684;2024-02-26T04:47:44;4.90;99.90
3350;DHT22;1688;51.000;13.684;2024-02-26T04:50:17;4.80;99.90
3350;DHT22;1688;51.000;13.684;2024-02-26T04:52:50;4.70;99.90
3350;DHT22;1688;51.000;13.684;2024-02-26T04:55:22;4.70;99.90
3350;DHT22;1688;51.000;13.684;2024-02-26T04:57:55;4.80;99.90
3350;DHT22;1688;51.000;13.684;2024-02-26T05:00:28;4.80;99.90
3350;DHT22;1688;51.000;13.684;2024-02-26T05:03:01;4.80;99.90
3350;DHT22;1688;51.000;13.684;2024-02-26T05:05:34;4.80;99.90
3350;DHT22;1688;51.000;13.684;2024-02-26T05:08:07;4.80;99.90
3350;DHT22;1688;51.000;13.684;2024-02-26T05:10:40;4.70;99.90
3350;DHT22;1688;51.000;13.684;2024-02-26T05:13:14;4.60;99.90
3350;DHT22;1688;51.000;13.684;2024-02-26T05:15:48;4.50;99.90
3350;DHT22;1688;51.000;13.684;2024-02-26T05:18:22;4.50;99.90
3350;DHT22;1688;51.000;13.684;2024-02-26T05:20:55;4.50;99.90
3350;DHT22;1688;51.000;13.684;2024-02-26T05:23:28;4.50;99.90
3350;DHT22;1688;51.000;13.684;2024-02-26T05:26:01;4.50;99.90
3350;DHT22;1688;51.000;13.684;2024-02-26T05:28:34;4.40;99.90
3350;DHT22;1688;51.000;13.684;2024-02-26T05:31:07;4.40;99.90
3350;DHT22;1688;51.000;13.684;2024-02-26T05:33:40;4.50;99.90
3350;DHT22;1688;51.000;13.684;2024-02-26T05:36:22;4.50;99.90
3350;DHT22;1688;51.000;13.684;2024-02-26T05:38:56;4.50;99.90
3350;DHT22;1688;51.000;13.684;2024-02-26T05:41:30;4.60;99.90
3350;DHT22;1688;51.000;13.684;2024-02-26T05:44:03;4.70;99.90
3350;DHT22;1688;51.000;13.684;2024-02-26T05:46:36;4.70;99.90
3350;DHT22;1688;51.000;13.684;2024-02-26T05:49:09;4.80;99.90
3350;DHT22;1688;51.000;13.684;2024-02-26T05:51:42;4.90;99.90
3350;DHT22;1688;51.000;13.684;2024-02-26T05:54:15;5.00;99.90
3350;DHT22;1688;51.000;13.684;2024-02-26T05:56:47;5.00;99.90
3350;DHT22;1688;51.000;13.684;2024-02-26T05:59:20;5.10;99.90
3350;DHT22;1688;51.000;13.684;2024-02-26T06:01:53;5.10;99.90
3350;DHT22;1688;51.000;13.684;2024-02-26T06:04:26;5.20;99.90
3350;DHT22;1688;51.000;13.684;2024-02-26T06:06:59;5.20;99.90
3350;DHT22;1688;51.000;13.684;2024-02-26T06:09:32;5.30;99.90
3350;DHT22;1688;51.000;13.684;2024-02-26T06:12:05;5.30;99.90
3350;DHT22;1688;51.000;13.684;2024-02-26T06:14:38;5.30;99.90
3350;DHT22;1688;51.000;13.684;2024-02-26T06:17:10;5.40;99.90
3350;DHT22;1688;51.000;13.684;2024-02-26T06:19:43;5.40;99.90
3350;DHT22;1688;51.000;13.684;2024-02-26T06:22:16;5.40;99.90
3350;DHT22;1688;51.000;13.684;2024-02-26T06:24:49;5.40;99.90
3350;DHT22;1688;51.000;13.684;2024-02-26T06:27:22;5.50;99.90
3350;DHT22;1688;51.000;13.684;2024-02-26T06:29:56;5.60;99.90
3350;DHT22;1688;51.000;13.684;2024-02-26T06:32:29;5.50;99.90
3350;DHT22;1688;51.000;13.684;2024-02-26T06:35:03;5.50;99.90
3350;DHT22;1688;51.000;13.684;2024-02-26T06:37:40;5.50;99.90
3350;DHT22;1688;51.000;13.684;2024-02-26T06:40:13;5.60;99.90
3350;DHT22;1688;51.000;13.684;2024-02-26T06:42:45;5.70;99.90
3350;DHT22;1688;51.000;13.684;2024-02-26T06:45:22;5.70;99.90
3350;DHT22;1688;51.000;13.684;2024-02-26T06:47:55;6.30;99.90
3350;DHT22;1688;51.000;13.684;2024-02-26T06:50:29;7.30;99.90
3350;DHT22;1688;51.000;13.684;2024-02-26T06:53:02;8.70;99.90
3350;DHT22;1688;51.000;13.684;2024-02-26T06:55:35;9.60;99.90
3350;DHT22;1688;51.000;13.684;2024-02-26T06:58:10;9.90;99.90
3350;DHT22;1688;51.000;13.684;2024-02-26T07:00:42;9.80;99.90
3350;DHT22;1688;51.000;13.684;2024-02-26T07:03:15;9.60;99.90
3350;DHT22;1688;51.000;13.684;2024-02-26T07:05:48;10.00;99.90
3350;DHT22;1688;51.000;13.684;2024-02-26T07:08:21;11.30;99.90
3350;DHT22;1688;51.000;13.684;2024-02-26T07:10:55;12.20;99.90
3350;DHT22;1688;51.000;13.684;2024-02-26T07:13:29;12.00;99.90
3350;DHT22;1688;51.000;13.684;2024-02-26T07:16:01;11.50;99.90
3350;DHT22;1688;51.000;13.684;2024-02-26T07:18:34;11.30;99.90
3350;DHT22;1688;51.000;13.684;2024-02-26T07:21:07;11.20;99.90
3350;DHT22;1688;51.000;13.684;2024-02-26T07:23:41;11.10;99.90
3350;DHT22;1688;51.000;13.684;2024-02-26T07:26:14;11.30;99.90
3350;DHT22;1688;51.000;13.684;2024-02-26T07:28:47;11.40;99.90
3350;DHT22;1688;51.000;13.684;2024-02-26T07:31:20;11.50;99.90
3350;DHT22;1688;51.000;13.684;2024-02-26T07:33:53;11.50;99.90
3350;DHT22;1688;51.000;13.684;2024-02-26T07:36:26;11.30;99.90
3350;DHT22;1688;51.000;13.684;2024-02-26T07:38:59;10.90;99.90
3350;DHT22;1688;51.000;13.684;2024-02-26T07:41:34;10.40;99.90
3350;DHT22;1688;51.000;13.684;2024-02-26T07:44:06;10.00;99.90
3350;DHT22;1688;51.000;13.684;2024-02-26T07:46:39;9.80;99.90
3350;DHT22;1688;51.000;13.684;2024-02-26T07:49:12;9.90;99.90
3350;DHT22;1688;51.000;13.684;2024-02-26T07:51:45;10.50;99.90
3350;DHT22;1688;51.000;13.684;2024-02-26T07:54:18;11.20;99.90
3350;DHT22;1688;51.000;13.684;2024-02-26T07:56:52;11.40;99.90
3350;DHT22;1688;51.000;13.684;2024-02-26T07:59:25;11.60;99.90
3350;DHT22;1688;51.000;13.684;2024-02-26T08:01:58;12.20;99.90
3350;DHT22;1688;51.000;13.684;2024-02-26T08:04:31;12.70;99.90
3350;DHT22;1688;51.000;13.684;2024-02-26T08:07:04;13.00;99.90
3350;DHT22;1688;51.000;13.684;2024-02-26T08:09:37;12.60;99.90
3350;DHT22;1688;51.000;13.684;2024-02-26T08:12:10;12.10;99.90
3350;DHT22;1688;51.000;13.684;2024-02-26T08:14:42;11.40;99.90
3350;DHT22;1688;51.000;13.684;2024-02-26T08:17:16;11.10;99.90
3350;DHT22;1688;51.000;13.684;2024-02-26T08:19:49;10.90;99.90
3350;DHT22;1688;51.000;13.684;2024-02-26T08:22:22;10.60;99.90
3350;DHT22;1688;51.000;13.684;2024-02-26T08:24:55;10.10;99.90
3350;DHT22;1688;51.000;13.684;2024-02-26T08:27:28;10.00;99.90
3350;DHT22;1688;51.000;13.684;2024-02-26T08:30:00;10.10;99.90
3350;DHT22;1688;51.000;13.684;2024-02-26T08:32:34;10.10;99.90
3350;DHT22;1688;51.000;13.684;2024-02-26T08:35:07;10.20;99.90
3350;DHT22;1688;51.000;13.684;2024-02-26T08:37:40;10.30;99.90
3350;DHT22;1688;51.000;13.684;2024-02-26T08:40:16;10.10;99.90
3350;DHT22;1688;51.000;13.684;2024-02-26T08:42:49;9.90;99.90
3350;DHT22;1688;51.000;13.684;2024-02-26T08:45:22;10.00;99.90
3350;DHT22;1688;51.000;13.684;2024-02-26T08:47:58;9.90;99.90
3350;DHT22;1688;51.000;13.684;2024-02-26T08:50:34;10.00;99.90
3350;DHT22;1688;51.000;13.684;2024-02-26T08:53:07;10.20;99.90
3350;DHT22;1688;51.000;13.684;2024-02-26T08:55:40;10.50;99.90
3350;DHT22;1688;51.000;13.684;2024-02-26T08:58:13;10.80;99.90
3350;DHT22;1688;51.000;13.684;2024-02-26T09:00:46;11.20;99.90
3350;DHT22;1688;51.000;13.684;2024-02-26T09:03:19;11.70;99.90
3350;DHT22;1688;51.000;13.684;2024-02-26T09:05:52;12.10;99.90
3350;DHT22;1688;51.000;13.684;2024-02-26T09:08:26;12.60;99.90
3350;DHT22;1688;51.000;13.684;2024-02-26T09:10:59;12.80;99.90
3350;DHT22;1688;51.000;13.684;2024-02-26T09:13:33;13.20;99.90
3350;DHT22;1688;51.000;13.684;2024-02-26T09:16:06;13.60;99.90
3350;DHT22;1688;51.000;13.684;2024-02-26T09:18:39;13.90;99.90
3350;DHT22;1688;51.000;13.684;2024-02-26T09:21:12;14.30;99.90
3350;DHT22;1688;51.000;13.684;2024-02-26T09:23:45;14.70;99.90
3350;DHT22;1688;51.000;13.684;2024-02-26T09:26:18;15.10;99.90
3350;DHT22;1688;51.000;13.684;2024-02-26T09:28:51;15.80;99.90
3350;DHT22;1688;51.000;13.684;2024-02-26T09:31:24;16.20;99.90
3350;DHT22;1688;51.000;13.684;2024-02-26T09:33:57;16.40;99.50
3350;DHT22;1688;51.000;13.684;2024-02-26T09:36:34;16.70;99.90
3350;DHT22;1688;51.000;13.684;2024-02-26T09:39:07;16.40;98.70
3350;DHT22;1688;51.000;13.684;2024-02-26T09:41:44;15.80;99.90
3350;DHT22;1688;51.000;13.684;2024-02-26T09:44:20;15.20;99.90
3350;DHT22;1688;51.000;13.684;2024-02-26T09:46:54;14.60;99.90
3350;DHT22;1688;51.000;13.684;2024-02-26T09:49:27;14.20;99.90
3350;DHT22;1688;51.000;13.684;2024-02-26T09:52:00;14.40;99.90
3350;DHT22;1688;51.000;13.684;2024-02-26T09:54:35;14.80;99.90
3350;DHT22;1688;51.000;13.684;2024-02-26T09:57:09;15.40;99.90
3350;DHT22;1688;51.000;13.684;2024-02-26T09:59:49;16.00;99.90
3350;DHT22;1688;51.000;13.684;2024-02-26T10:02:23;16.60;99.70
3350;DHT22;1688;51.000;13.684;2024-02-26T10:04:57;17.50;97.40
3350;DHT22;1688;51.000;13.684;2024-02-26T10:07:35;18.40;95.40
3350;DHT22;1688;51.000;13.684;2024-02-26T10:10:08;18.80;94.00
3350;DHT22;1688;51.000;13.684;2024-02-26T10:12:41;19.50;93.00
3350;DHT22;1688;51.000;13.684;2024-02-26T10:15:15;20.00;91.20
3350;DHT22;1688;51.000;13.684;2024-02-26T10:17:48;19.90;89.80
3350;DHT22;1688;51.000;13.684;2024-02-26T10:20:21;19.90;90.80
3350;DHT22;1688;51.000;13.684;2024-02-26T10:22:56;20.20;90.80
3350;DHT22;1688;51.000;13.684;2024-02-26T10:25:29;21.00;87.60
3350;DHT22;1688;51.000;13.684;2024-02-26T10:28:04;21.30;84.40
3350;DHT22;1688;51.000;13.684;2024-02-26T10:30:37;21.90;84.10
3350;DHT22;1688;51.000;13.684;2024-02-26T10:33:10;22.30;79.50
3350;DHT22;1688;51.000;13.684;2024-02-26T10:35:47;21.70;78.70
3350;DHT22;1688;51.000;13.684;2024-02-26T10:38:20;21.20;78.20
3350;DHT22;1688;51.000;13.684;2024-02-26T10:40:54;19.80;83.40
3350;DHT22;1688;51.000;13.684;2024-02-26T10:43:27;19.80;85.00
3350;DHT22;1688;51.000;13.684;2024-02-26T10:46:00;20.10;85.70
3350;DHT22;1688;51.000;13.684;2024-02-26T10:48:33;19.70;85.10
3350;DHT22;1688;51.000;13.684;2024-02-26T10:51:07;19.10;84.90
3350;DHT22;1688;51.000;13.684;2024-02-26T10:53:43;18.70;88.10
3350;DHT22;1688;51.000;13.684;2024-02-26T10:56:18;18.30;90.50
3350;DHT22;1688;51.000;13.684;2024-02-26T10:58:52;18.00;91.10
3350;DHT22;1688;51.000;13.684;2024-02-26T11:01:27;17.10;91.50
3350;DHT22;1688;51.000;13.684;2024-02-26T11:04:02;16.30;94.10
3350;DHT22;1688;51.000;13.684;2024-02-26T11:06:36;16.00;95.20
3350;DHT22;1688;51.000;13.684;2024-02-26T11:09:12;15.30;96.00
3350;DHT22;1688;51.000;13.684;2024-02-26T11:11:48;14.80;99.00
3350;DHT22;1688;51.000;13.684;2024-02-26T11:14:24;14.50;99.90
3350;DHT22;1688;51.000;13.684;2024-02-26T11:17:00;14.30;99.90
3350;DHT22;1688;51.000;13.684;2024-02-26T11:19:35;14.10;99.90
3350;DHT22;1688;51.000;13.684;2024-02-26T11:22:10;13.80;99.90
3350;DHT22;1688;51.000;13.684;2024-02-26T11:24:56;13.50;99.90
3350;DHT22;1688;51.000;13.684;2024-02-26T11:27:35;13.00;99.90
3350;DHT22;1688;51.000;13.684;2024-02-26T11:30:11;12.90;99.90
3350;DHT22;1688;51.000;13.684;2024-02-26T11:32:48;12.70;99.90
3350;DHT22;1688;51.000;13.684;2024-02-26T11:35:22;12.50;99.90
3350;DHT22;1688;51.000;13.684;2024-02-26T11:37:56;12.40;99.90
3350;DHT22;1688;51.000;13.684;2024-02-26T11:40:31;12.60;99.90
3350;DHT22;1688;51.000;13.684;2024-02-26T11:43:04;12.80;99.90
3350;DHT22;1688;51.000;13.684;2024-02-26T11:48:23;13.00;99.90
3350;DHT22;1688;51.000;13.684;2024-02-26T11:50:57;13.00;99.90
3350;DHT22;1688;51.000;13.684;2024-02-26T11:53:31;12.90;99.90
3350;DHT22;1688;51.000;13.684;2024-02-26T11:58:56;12.90;99.90
3350;DHT22;1688;51.000;13.684;2024-02-26T12:01:40;12.80;99.90
3350;DHT22;1688;51.000;13.684;2024-02-26T12:04:25;12.80;99.90
3350;DHT22;1688;51.000;13.684;2024-02-26T12:07:03;12.70;99.90
3350;DHT22;1688;51.000;13.684;2024-02-26T12:09:40;12.70;99.90
3350;DHT22;1688;51.000;13.684;2024-02-26T12:12:18;12.70;99.90
3350;DHT22;1688;51.000;13.684;2024-02-26T12:14:55;12.60;99.90
3350;DHT22;1688;51.000;13.684;2024-02-26T12:17:28;12.50;99.90
3350;DHT22;1688;51.000;13.684;2024-02-26T12:20:09;12.60;99.90
3350;DHT22;1688;51.000;13.684;2024-02-26T12:22:45;12.50;99.90
3350;DHT22;1688;51.000;13.684;2024-02-26T12:25:26;12.50;99.90
3350;DHT22;1688;51.000;13.684;2024-02-26T12:27:59;12.30;99.90
3350;DHT22;1688;51.000;13.684;2024-02-26T12:30:33;12.30;99.90
3350;DHT22;1688;51.000;13.684;2024-02-26T12:33:06;12.30;99.90
3350;DHT22;1688;51.000;13.684;2024-02-26T12:35:41;12.20;99.90
3350;DHT22;1688;51.000;13.684;2024-02-26T12:38:15;12.20;99.90
3350;DHT22;1688;51.000;13.684;2024-02-26T12:40:48;12.20;99.90
3350;DHT22;1688;51.000;13.684;2024-02-26T12:43:21;12.10;99.90
3350;DHT22;1688;51.000;13.684;2024-02-26T12:45:54;12.00;99.90
3350;DHT22;1688;51.000;13.684;2024-02-26T12:48:27;12.00;99.90
3350;DHT22;1688;51.000;13.684;2024-02-26T12:51:00;11.90;99.90
3350;DHT22;1688;51.000;13.684;2024-02-26T12:53:33;11.90;99.90
3350;DHT22;1688;51.000;13.684;2024-02-26T12:56:08;12.00;99.90
3350;DHT22;1688;51.000;13.684;2024-02-26T12:58:42;11.90;99.90
3350;DHT22;1688;51.000;13.684;2024-02-26T13:01:17;12.00;99.90
3350;DHT22;1688;51.000;13.684;2024-02-26T13:03:51;11.90;99.90
3350;DHT22;1688;51.000;13.684;2024-02-26T13:06:25;11.90;99.90
3350;DHT22;1688;51.000;13.684;2024-02-26T13:08:58;12.00;99.90
3350;DHT22;1688;51.000;13.684;2024-02-26T13:11:31;12.10;99.90
3350;DHT22;1688;51.000;13.684;2024-02-26T13:14:05;12.20;99.90
3350;DHT22;1688;51.000;13.684;2024-02-26T13:16:40;12.20;99.90
3350;DHT22;1688;51.000;13.684;2024-02-26T13:19:13;12.00;99.90
3350;DHT22;1688;51.000;13.684;2024-02-26T13:21:46;12.00;99.90
3350;DHT22;1688;51.000;13.684;2024-02-26T13:24:22;12.00;99.90
3350;DHT22;1688;51.000;13.684;2024-02-26T13:26:55;12.00;99.90
3350;DHT22;1688;51.000;13.684;2024-02-26T13:29:28;11.90;99.90
3350;DHT22;1688;51.000;13.684;2024-02-26T13:32:01;11.80;99.90
3350;DHT22;1688;51.000;13.684;2024-02-26T13:34:35;11.80;99.90
3350;DHT22;1688;51.000;13.684;2024-02-26T13:37:09;11.80;99.90
3350;DHT22;1688;51.000;13.684;2024-02-26T13:39:42;11.80;99.90
3350;DHT22;1688;51.000;13.684;2024-02-26T13:42:15;11.80;99.90
3350;DHT22;1688;51.000;13.684;2024-02-26T13:44:48;11.90;99.90
3350;DHT22;1688;51.000;13.684;2024-02-26T13:47:21;11.90;99.90
3350;DHT22;1688;51.000;13.684;2024-02-26T13:49:54;11.90;99.90
3350;DHT22;1688;51.000;13.684;2024-02-26T13:52:27;11.90;99.90
3350;DHT22;1688;51.000;13.684;2024-02-26T13:55:00;11.90;99.90
3350;DHT22;1688;51.000;13.684;2024-02-26T13:57:33;11.90;99.90
3350;DHT22;1688;51.000;13.684;2024-02-26T14:00:08;11.90;99.90
3350;DHT22;1688;51.000;13.684;2024-02-26T14:02:42;11.90;99.90
3350;DHT22;1688;51.000;13.684;2024-02-26T14:05:15;11.90;99.90
3350;DHT22;1688;51.000;13.684;2024-02-26T14:07:48;11.90;99.90
3350;DHT22;1688;51.000;13.684;2024-02-26T14:10:25;12.00;99.90
3350;DHT22;1688;51.000;13.684;2024-02-26T14:12:59;12.00;99.90
3350;DHT22;1688;51.000;13.684;2024-02-26T14:15:33;12.10;99.90
3350;DHT22;1688;51.000;13.684;2024-02-26T14:18:08;12.00;99.90
3350;DHT22;1688;51.000;13.684;2024-02-26T14:20:41;12.00;99.90
3350;DHT22;1688;51.000;13.684;2024-02-26T14:23:14;12.10;99.90
3350;DHT22;1688;51.000;13.684;2024-02-26T14:25:47;12.00;99.90
3350;DHT22;1688;51.000;13.684;2024-02-26T14:28:20;12.00;99.90
3350;DHT22;1688;51.000;13.684;2024-02-26T14:31:00;12.00;99.90
3350;DHT22;1688;51.000;13.684;2024-02-26T14:33:33;12.00;99.90
3350;DHT22;1688;51.000;13.684;2024-02-26T14:36:07;12.00;99.90
3350;DHT22;1688;51.000;13.684;2024-02-26T14:38:40;11.80;99.90
3350;DHT22;1688;51.000;13.684;2024-02-26T14:41:13;11.70;99.90
3350;DHT22;1688;51.000;13.684;2024-02-26T14:43:46;11.60;99.90
3350;DHT22;1688;51.000;13.684;2024-02-26T14:46:19;11.50;99.90
3350;DHT22;1688;51.000;13.684;2024-02-26T14:48:52;11.60;99.90
3350;DHT22;1688;51.000;13.684;2024-02-26T14:51:25;11.70;99.90
3350;DHT22;1688;51.000;13.684;2024-02-26T14:53:58;11.80;99.90
3350;DHT22;1688;51.000;13.684;2024-02-26T14:56:33;11.80;99.90
3350;DHT22;1688;51.000;13.684;2024-02-26T14:59:06;11.80;99.90
3350;DHT22;1688;51.000;13.684;2024-02-26T15:01:39;11.80;99.90
3350;DHT22;1688;51.000;13.684;2024-02-26T15:04:15;11.80;99.90
3350;DHT22;1688;51.000;13.684;2024-02-26T15:06:48;11.80;99.90
3350;DHT22;1688;51.000;13.684;2024-02-26T15:09:21;11.80;99.90
3350;DHT22;1688;51.000;13.684;2024-02-26T15:11:54;11.90;99.90
3350;DHT22;1688;51.000;13.684;2024-02-26T15:14:27;11.80;99.90
3350;DHT22;1688;51.000;13.684;2024-02-26T15:17:00;11.90;99.90
3350;DHT22;1688;51.000;13.684;2024-02-26T15:19:33;11.80;99.90
3350;DHT22;1688;51.000;13.684;2024-02-26T15:22:06;11.90;99.90
3350;DHT22;1688;51.000;13.684;2024-02-26T15:24:39;11.90;99.90
3350;DHT22;1688;51.000;13.684;2024-02-26T15:27:12;11.90;99.90
3350;DHT22;1688;51.000;13.684;2024-02-26T15:29:45;11.90;99.90
3350;DHT22;1688;51.000;13.684;2024-02-26T15:32:17;11.90;99.90
3350;DHT22;1688;51.000;13.684;2024-02-26T15:34:50;12.00;99.90
3350;DHT22;1688;51.000;13.684;2024-02-26T15:37:24;11.90;99.90
3350;DHT22;1688;51.000;13.684;2024-02-26T15:39:56;11.90;99.90
3350;DHT22;1688;51.000;13.684;2024-02-26T15:42:29;11.90;99.90
3350;DHT22;1688;51.000;13.684;2024-02-26T15:45:03;11.90;99.90
3350;DHT22;1688;51.000;13.684;2024-02-26T15:47:36;11.90;99.90
3350;DHT22;1688;51.000;13.684;2024-02-26T15:50:09;11.90;99.90
3350;DHT22;1688;51.000;13.684;2024-02-26T15:52:46;11.80;99.90
3350;DHT22;1688;51.000;13.684;2024-02-26T15:55:19;11.90;99.90
3350;DHT22;1688;51.000;13.684;2024-02-26T15:57:54;11.90;99.90
3350;DHT22;1688;51.000;13.684;2024-02-26T16:00:26;11.90;99.90
3350;DHT22;1688;51.000;13.684;2024-02-26T16:02:59;12.00;99.90
3350;DHT22;1688;51.000;13.684;2024-02-26T16:05:32;11.90;99.90
3350;DHT22;1688;51.000;13.684;2024-02-26T16:08:10;12.00;99.90
3350;DHT22;1688;51.000;13.684;2024-02-26T16:10:44;12.00;99.90
3350;DHT22;1688;51.000;13.684;2024-02-26T16:13:17;12.00;99.90
3350;DHT22;1688;51.000;13.684;2024-02-26T16:16:16;12.00;99.90
3350;DHT22;1688;51.000;13.684;2024-02-26T16:18:50;12.00;99.90
3350;DHT22;1688;51.000;13.684;2024-02-26T16:21:23;11.90;99.90
3350;DHT22;1688;51.000;13.684;2024-02-26T16:23:56;12.00;99.90
3350;DHT22;1688;51.000;13.684;2024-02-26T16:26:29;11.90;99.90
3350;DHT22;1688;51.000;13.684;2024-02-26T16:29:02;11.90;99.90
3350;DHT22;1688;51.000;13.684;2024-02-26T16:31:36;11.90;99.90
3350;DHT22;1688;51.000;13.684;2024-02-26T16:34:09;11.90;99.90
3350;DHT22;1688;51.000;13.684;2024-02-26T16:36:42;11.90;99.90
3350;DHT22;1688;51.000;13.684;2024-02-26T16:39:15;11.90;99.90